createdAt,value
2019-04-07T13:01:47.092Z,43.76
2019-04-07T13:04:20.999Z,43.06
2019-04-07T13:07:15.274Z,43.64
2019-04-07T13:10:04.163Z,43.95
2019-04-07T13:12:49.716Z,44.34
2019-04-07T13:15:35.105Z,43.84
2019-04-07T13:18:12.149Z,42.65
2019-04-07T13:20:59.031Z,42.94
2019-04-07T13:23:41.680Z,43.85
2019-04-07T13:26:32.384Z,43.17
2019-04-07T13:29:40.688Z,44.15
2019-04-07T13:32:20.703Z,44.75
2019-04-07T13:34:56.653Z,44.46
2019-04-07T13:37:45.671Z,44.42
2019-04-07T13:40:36.110Z,44.86
2019-04-07T13:43:16.520Z,45.57
2019-04-07T13:45:59.296Z,45.82
2019-04-07T13:48:51.615Z,44.69
2019-04-07T13:51:34.537Z,44.40
2019-04-07T13:54:23.244Z,45.62
2019-04-07T13:57:08.100Z,45.35
2019-04-07T14:00:04.087Z,44.19
2019-04-07T14:02:40.007Z,44.60
2019-04-07T14:05:14.950Z,44.77
2019-04-07T14:07:54.427Z,43.49
2019-04-07T14:10:38.330Z,43.95
2019-04-07T14:13:23.562Z,45.03
2019-04-07T14:16:09.497Z,45.30
2019-04-07T14:19:02.536Z,45.34
2019-04-07T14:21:51.986Z,44.50
2019-04-07T14:24:33.517Z,43.77
2019-04-07T14:27:23.772Z,43.71
2019-04-07T14:29:59.114Z,43.97
2019-04-07T14:32:50.569Z,41.02
2019-04-07T14:35:35.769Z,42.35
2019-04-07T14:38:17.930Z,42.04
2019-04-07T14:41:01.137Z,42.24
2019-04-07T14:44:06.972Z,40.26
2019-04-07T14:47:00.045Z,39.94
2019-04-07T14:49:38.666Z,40.67
2019-04-07T14:52:17.688Z,39.67
2019-04-07T14:54:59.861Z,39.72
2019-04-07T14:57:45.838Z,39.92
2019-04-07T15:00:32.668Z,41.26
2019-04-07T15:02:59.372Z,40.06
2019-04-07T15:05:29.892Z,39.93
2019-04-07T15:08:06.471Z,40.74
2019-04-07T15:10:39.770Z,40.12
2019-04-07T15:13:10.730Z,40.82
2019-04-07T15:15:37.484Z,40.40
2019-04-07T15:18:05.092Z,41.04
2019-04-07T15:20:32.302Z,43.50
2019-04-07T15:23:00.254Z,43.48
2019-04-07T15:25:28.824Z,43.11
2019-04-07T15:27:58.923Z,44.34
2019-04-07T15:30:25.378Z,43.09
2019-04-07T15:32:57.869Z,43.11
2019-04-07T15:35:24.399Z,43.24
2019-04-07T15:37:52.493Z,43.68
2019-04-07T15:40:19.299Z,44.19
2019-04-07T15:42:50.007Z,43.37
2019-04-07T15:45:15.087Z,43.14
2019-04-07T15:47:42.476Z,43.91
2019-04-07T15:50:09.662Z,43.78
2019-04-07T15:52:36.998Z,43.87
2019-04-07T15:55:05.169Z,43.28
2019-04-07T15:57:32.439Z,43.85
2019-04-07T16:00:01.693Z,43.90
2019-04-07T16:02:28.923Z,44.25
2019-04-07T16:04:59.241Z,44.41
2019-04-07T16:07:24.705Z,45.59
2019-04-07T16:09:56.316Z,44.08
2019-04-07T16:12:19.819Z,44.56
2019-04-07T16:14:47.078Z,43.98
2019-04-07T16:17:13.936Z,44.16
2019-04-07T16:19:43.875Z,44.01
2019-04-07T16:22:12.590Z,44.12
2019-04-07T16:24:37.864Z,44.78
2019-04-07T16:27:06.724Z,45.20
2019-04-07T16:29:33.305Z,45.08
2019-04-07T16:32:00.140Z,45.19
2019-04-07T16:34:26.837Z,45.13
2019-04-07T16:36:57.245Z,46.15
2019-04-07T16:39:23.031Z,45.44
2019-04-07T16:41:50.192Z,46.15
2019-04-07T16:44:17.039Z,46.19
2019-04-07T16:46:43.770Z,46.56
2019-04-07T16:49:13.222Z,46.24
2019-04-07T16:51:39.215Z,46.21
2019-04-07T16:54:08.728Z,46.85
2019-04-07T16:56:34.994Z,46.83
2019-04-07T16:59:02.656Z,47.37
2019-04-07T17:01:31.419Z,47.40
2019-04-07T17:03:59.284Z,47.81
2019-04-07T17:06:29.814Z,47.90
2019-04-07T17:08:55.057Z,48.32
2019-04-07T17:11:22.534Z,48.23
2019-04-07T17:13:50.021Z,48.56
2019-04-07T17:16:22.205Z,48.82
2019-04-07T17:18:47.907Z,48.92
2019-04-07T17:21:15.801Z,49.46
2019-04-07T17:23:42.930Z,50.55
2019-04-07T17:26:09.832Z,51.07
2019-04-07T17:28:36.629Z,50.86
2019-04-07T17:31:04.606Z,50.63
2019-04-07T17:33:35.163Z,50.78
2019-04-07T17:36:02.495Z,50.71
2019-04-07T17:38:35.003Z,51.15
2019-04-07T17:41:01.884Z,51.69
2019-04-07T17:44:06.550Z,51.13
2019-04-07T17:46:47.160Z,52.19
2019-04-07T17:49:26.292Z,52.61
2019-04-07T17:52:18.606Z,53.02
2019-04-07T17:54:54.332Z,52.82
2019-04-07T17:57:27.159Z,53.04
2019-04-07T18:00:16.496Z,53.56
2019-04-07T18:03:19.998Z,53.78
2019-04-07T18:06:04.154Z,53.34
2019-04-07T18:09:09.206Z,54.25
2019-04-07T18:11:47.399Z,53.52
2019-04-07T18:14:33.033Z,53.85
2019-04-07T18:17:11.924Z,54.16
2019-04-07T18:19:59.487Z,54.77
2019-04-07T18:22:45.075Z,54.08
2019-04-07T18:25:45.891Z,54.17
2019-04-07T18:28:30.202Z,55.10
2019-04-07T18:31:08.452Z,55.34
2019-04-07T18:34:13.157Z,55.16
2019-04-07T18:36:59.956Z,56.27
2019-04-07T18:39:51.630Z,55.07
2019-04-07T18:42:36.117Z,55.91
2019-04-07T18:45:15.785Z,55.88
2019-04-07T18:47:57.898Z,55.31
2019-04-07T18:50:48.006Z,55.98
2019-04-07T18:53:33.364Z,55.75
2019-04-07T18:56:10.505Z,55.77
2019-04-07T18:59:07.454Z,55.70
2019-04-07T19:01:53.815Z,56.33
2019-04-07T19:04:58.188Z,56.06
2019-04-07T19:07:45.881Z,56.32
2019-04-07T19:10:28.024Z,56.74
2019-04-07T19:13:18.545Z,56.64
2019-04-07T19:15:55.389Z,56.69
2019-04-07T19:18:32.564Z,56.80
2019-04-07T19:21:12.238Z,57.12
2019-04-07T19:23:59.051Z,57.30
2019-04-07T19:26:43.203Z,57.01
2019-04-07T19:29:28.355Z,57.33
2019-04-07T19:32:13.507Z,57.40
2019-04-07T19:34:53.055Z,57.49
2019-04-07T19:37:26.778Z,57.29
2019-04-07T19:40:30.216Z,57.30
2019-04-07T19:43:06.508Z,57.55
2019-04-07T19:45:45.554Z,57.68
2019-04-07T19:48:42.763Z,57.65
2019-04-07T19:51:38.310Z,58.25
2019-04-07T19:54:31.371Z,58.14
2019-04-07T19:57:09.185Z,58.32
2019-04-07T19:59:52.747Z,58.88
2019-04-07T20:02:40.433Z,58.84
2019-04-07T20:05:25.445Z,59.64
2019-04-07T20:08:20.212Z,58.78
2019-04-07T20:10:54.621Z,58.97
2019-04-07T20:13:50.911Z,59.32
2019-04-07T20:16:38.184Z,59.37
2019-04-07T20:19:36.184Z,59.19
2019-04-07T20:22:28.162Z,59.42
2019-04-07T20:25:15.971Z,59.54
2019-04-07T20:27:51.234Z,59.76
2019-04-07T20:30:36.325Z,59.69
2019-04-07T20:33:29.843Z,60.23
2019-04-07T20:36:32.259Z,60.17
2019-04-07T20:39:21.861Z,60.74
2019-04-07T20:41:56.885Z,60.76
2019-04-07T20:44:43.248Z,60.68
2019-04-07T20:47:29.762Z,61.04
2019-04-07T20:50:23.824Z,61.37
2019-04-07T20:53:17.345Z,61.17
2019-04-07T20:56:00.373Z,61.63
2019-04-07T20:58:54.972Z,61.35
2019-04-07T21:01:33.881Z,61.91
2019-04-07T21:04:21.666Z,61.93
2019-04-07T21:07:28.918Z,62.10
2019-04-07T21:10:05.229Z,62.24
2019-04-07T21:12:52.774Z,62.42
2019-04-07T21:15:35.825Z,62.35
2019-04-07T21:18:32.612Z,62.37
2019-04-07T21:21:12.192Z,62.44
2019-04-07T21:23:48.020Z,62.52
2019-04-07T21:26:32.302Z,62.67
2019-04-07T21:29:25.897Z,62.88
2019-04-07T21:32:09.925Z,62.77
2019-04-07T21:34:58.275Z,63.25
2019-04-07T21:37:33.803Z,63.23
2019-04-07T21:40:14.345Z,63.43
2019-04-07T21:43:13.469Z,63.55
2019-04-07T21:46:02.765Z,63.59
2019-04-07T21:48:41.243Z,63.78
2019-04-07T21:51:18.083Z,63.89
2019-04-07T21:54:04.518Z,64.14
2019-04-07T21:56:53.962Z,64.01
2019-04-07T21:59:39.524Z,64.06
2019-04-07T22:02:15.354Z,64.04
2019-04-07T22:04:55.699Z,64.06
2019-04-07T22:07:33.576Z,64.15
2019-04-07T22:10:03.193Z,64.25
2019-04-07T22:12:31.955Z,64.22
2019-04-07T22:14:59.111Z,64.44
2019-04-07T22:17:25.827Z,64.70
2019-04-07T22:19:53.142Z,64.71
2019-04-07T22:22:19.754Z,64.80
2019-04-07T22:24:46.543Z,64.86
2019-04-07T22:27:13.540Z,64.91
2019-04-07T22:29:40.372Z,64.95
2019-04-07T22:32:07.462Z,65.04
2019-04-07T22:34:34.358Z,65.16
2019-04-07T22:37:00.909Z,65.11
2019-04-07T22:39:28.904Z,65.51
2019-04-07T22:41:57.117Z,65.32
2019-04-07T22:44:24.728Z,65.50
2019-04-07T22:46:52.324Z,65.56
2019-04-07T22:49:19.813Z,65.64
2019-04-07T22:51:48.313Z,65.63
2019-04-07T22:54:15.305Z,65.84
2019-04-07T22:56:42.506Z,65.86
2019-04-07T22:59:11.252Z,65.92
2019-04-07T23:01:37.742Z,66.07
2019-04-07T23:04:04.421Z,66.00
2019-04-07T23:06:31.179Z,65.93
2019-04-07T23:08:57.917Z,66.19
2019-04-07T23:11:24.669Z,66.24
2019-04-07T23:13:51.380Z,66.29
2019-04-07T23:16:18.989Z,66.45
2019-04-07T23:18:46.687Z,66.46
2019-04-07T23:21:13.385Z,66.70
2019-04-07T23:23:40.065Z,66.86
2019-04-07T23:26:07.512Z,66.92
2019-04-07T23:28:34.763Z,66.99
2019-04-07T23:31:01.461Z,67.02
2019-04-07T23:33:28.054Z,67.08
2019-04-07T23:35:55.448Z,67.26
2019-04-07T23:38:22.120Z,67.39
2019-04-07T23:40:49.394Z,67.41
2019-04-07T23:43:17.348Z,67.66
2019-04-07T23:45:44.232Z,67.60
2019-04-07T23:48:10.881Z,67.85
2019-04-07T23:50:37.684Z,67.83
2019-04-07T23:53:41.164Z,67.84
2019-04-07T23:56:07.956Z,67.87
2019-04-07T23:58:34.592Z,67.86
